createdAt,value
2022-09-17T00:01:20.914Z,11.20
2022-09-17T00:04:00.306Z,11.15
2022-09-17T00:06:34.028Z,11.12
2022-09-17T00:09:07.081Z,11.09
2022-09-17T00:11:41.225Z,11.07
2022-09-17T00:14:16.216Z,11.06
2022-09-17T00:16:49.330Z,11.01
2022-09-17T00:19:23.020Z,10.98
2022-09-17T00:21:54.569Z,10.97
2022-09-17T00:24:26.146Z,10.99
2022-09-17T00:26:57.746Z,10.96
2022-09-17T00:29:29.403Z,10.95
2022-09-17T00:32:01.103Z,10.94
2022-09-17T00:34:32.734Z,10.90
2022-09-17T00:37:07.284Z,10.86
2022-09-17T00:39:38.919Z,10.85
2022-09-17T00:42:13.058Z,10.79
2022-09-17T00:44:53.398Z,10.78
2022-09-17T00:47:29.018Z,10.78
2022-09-17T00:50:15.202Z,10.76
2022-09-17T00:52:51.369Z,10.76
2022-09-17T00:55:31.622Z,10.77
2022-09-17T00:58:06.146Z,10.76
2022-09-17T01:00:37.911Z,10.66
2022-09-17T01:03:09.810Z,10.73
2022-09-17T01:05:50.019Z,10.68
2022-09-17T01:08:35.400Z,10.63
2022-09-17T01:11:18.950Z,10.63
2022-09-17T01:14:11.817Z,10.61
2022-09-17T01:16:58.123Z,10.59
2022-09-17T01:19:58.195Z,10.56
2022-09-17T01:23:14.614Z,10.60
2022-09-17T01:26:35.522Z,10.58
2022-09-17T01:29:25.316Z,10.56
2022-09-17T01:32:12.767Z,10.55
2022-09-17T01:35:24.773Z,10.50
2022-09-17T01:38:11.957Z,10.50
2022-09-17T01:40:56.458Z,10.50
2022-09-17T01:43:36.261Z,10.51
2022-09-17T01:46:17.209Z,10.48
2022-09-17T01:48:52.092Z,10.49
2022-09-17T01:51:26.527Z,10.48
2022-09-17T01:54:07.462Z,10.42
2022-09-17T01:56:56.326Z,10.41
2022-09-17T01:59:33.738Z,10.42
2022-09-17T02:02:18.502Z,10.43
2022-09-17T02:05:22.269Z,10.43
2022-09-17T02:07:59.193Z,10.43
2022-09-17T02:10:36.926Z,10.42
2022-09-17T02:13:22.781Z,10.45
2022-09-17T02:16:02.219Z,10.46
2022-09-17T02:18:46.576Z,10.44
2022-09-17T02:21:28.897Z,10.44
2022-09-17T02:24:23.062Z,10.42
2022-09-17T02:27:11.671Z,10.33
2022-09-17T02:29:44.609Z,10.29
2022-09-17T02:32:16.265Z,10.28
2022-09-17T02:34:47.853Z,10.31
2022-09-17T02:37:19.575Z,10.31
2022-09-17T02:39:51.231Z,10.29
2022-09-17T02:42:32.320Z,10.22
2022-09-17T02:45:25.366Z,10.23
2022-09-17T02:48:32.559Z,10.26
2022-09-17T02:51:35.239Z,10.20
2022-09-17T02:54:18.551Z,10.18
2022-09-17T02:57:05.031Z,10.11
2022-09-17T03:00:09.492Z,10.10
2022-09-17T03:02:47.250Z,10.10
2022-09-17T03:05:21.871Z,10.10
2022-09-17T03:07:56.799Z,10.13
2022-09-17T03:10:30.790Z,10.19
2022-09-17T03:13:02.427Z,10.26
2022-09-17T03:15:34.167Z,10.32
2022-09-17T03:18:05.815Z,10.37
2022-09-17T03:20:37.695Z,10.38
2022-09-17T03:23:09.258Z,10.40
2022-09-17T03:25:40.899Z,10.46
2022-09-17T03:28:16.594Z,10.44
2022-09-17T03:30:48.201Z,10.47
2022-09-17T03:33:20.134Z,10.50
2022-09-17T03:35:51.759Z,10.49
2022-09-17T03:38:24.054Z,10.50
2022-09-17T03:41:04.082Z,10.51
2022-09-17T03:43:35.734Z,10.53
2022-09-17T03:46:07.783Z,10.57
2022-09-17T03:48:39.774Z,10.64
2022-09-17T03:51:11.689Z,10.63
2022-09-17T03:53:43.316Z,10.63
2022-09-17T03:56:15.025Z,10.70
2022-09-17T03:58:46.601Z,10.69
2022-09-17T04:01:18.407Z,10.72
2022-09-17T04:03:50.070Z,10.75
2022-09-17T04:06:21.903Z,10.81
2022-09-17T04:08:53.606Z,10.83
2022-09-17T04:11:25.290Z,10.81
2022-09-17T04:13:56.952Z,10.85
2022-09-17T04:16:28.647Z,10.86
2022-09-17T04:19:00.447Z,10.81
2022-09-17T04:21:32.225Z,10.82
2022-09-17T04:24:04.034Z,10.81
2022-09-17T04:26:35.663Z,10.82
2022-09-17T04:29:07.302Z,10.83
2022-09-17T04:31:39.023Z,10.89
2022-09-17T04:34:10.611Z,10.90
2022-09-17T04:36:42.208Z,10.90
2022-09-17T04:39:13.799Z,10.95
2022-09-17T04:41:45.781Z,10.89
2022-09-17T04:44:17.402Z,10.87
2022-09-17T04:46:49.046Z,10.86
2022-09-17T04:49:20.624Z,10.85
2022-09-17T04:51:52.215Z,10.82
2022-09-17T04:54:24.237Z,10.85
2022-09-17T04:56:55.846Z,10.88
2022-09-17T04:59:27.425Z,10.93
2022-09-17T05:02:01.067Z,10.96
2022-09-17T05:04:32.677Z,10.93
2022-09-17T05:07:04.473Z,10.92
2022-09-17T05:09:36.546Z,10.93
2022-09-17T05:12:08.133Z,10.90
2022-09-17T05:14:42.538Z,10.92
2022-09-17T05:17:14.167Z,10.93
2022-09-17T05:19:46.193Z,10.94
2022-09-17T05:22:21.425Z,10.97
2022-09-17T05:24:53.362Z,11.03
2022-09-17T05:27:25.016Z,11.06
2022-09-17T05:29:56.579Z,11.08
2022-09-17T05:32:28.233Z,11.14
2022-09-17T05:35:02.548Z,11.15
2022-09-17T05:37:37.508Z,11.15
2022-09-17T05:40:10.273Z,11.20
2022-09-17T05:42:42.046Z,11.29
2022-09-17T05:45:13.954Z,11.32
2022-09-17T05:47:45.565Z,11.36
2022-09-17T05:50:17.349Z,11.43
2022-09-17T05:52:49.104Z,11.47
2022-09-17T05:55:22.495Z,11.48
2022-09-17T05:57:54.160Z,11.45
2022-09-17T06:00:25.848Z,11.53
2022-09-17T06:02:57.960Z,11.55
2022-09-17T06:05:29.590Z,11.50
2022-09-17T06:08:01.301Z,11.54
2022-09-17T06:10:39.377Z,11.50
2022-09-17T06:13:11.030Z,11.54
2022-09-17T06:15:42.625Z,11.56
2022-09-17T06:18:14.256Z,11.57
2022-09-17T06:20:56.732Z,11.55
2022-09-17T06:23:33.171Z,11.54
2022-09-17T06:26:06.246Z,11.48
2022-09-17T06:28:41.521Z,11.51
2022-09-17T06:31:14.078Z,11.58
2022-09-17T06:33:45.811Z,11.49
2022-09-17T06:36:17.509Z,11.45
2022-09-17T06:38:49.159Z,11.38
2022-09-17T06:41:20.933Z,11.34
2022-09-17T06:43:56.948Z,11.41
2022-09-17T06:46:28.582Z,11.46
2022-09-17T06:49:00.291Z,11.45
2022-09-17T06:51:31.901Z,11.40
2022-09-17T06:54:03.517Z,11.37
2022-09-17T06:56:35.154Z,11.36
2022-09-17T06:59:06.741Z,11.38
2022-09-17T07:01:38.385Z,11.42
2022-09-17T07:04:10.107Z,11.46
2022-09-17T07:06:43.490Z,11.42
2022-09-17T07:09:15.086Z,11.38
2022-09-17T07:11:46.671Z,11.41
2022-09-17T07:14:19.210Z,11.46
2022-09-17T07:16:52.778Z,11.45
2022-09-17T07:19:24.436Z,11.54
2022-09-17T07:21:56.012Z,11.61
2022-09-17T07:24:32.623Z,11.64
2022-09-17T07:27:04.666Z,11.69
2022-09-17T07:29:36.783Z,11.74
2022-09-17T07:32:08.440Z,11.77
2022-09-17T07:34:40.166Z,11.81
2022-09-17T07:37:11.717Z,11.84
2022-09-17T07:39:44.134Z,11.85
2022-09-17T07:42:15.766Z,11.92
2022-09-17T07:44:47.666Z,11.86
2022-09-17T07:47:20.027Z,11.93
2022-09-17T07:49:51.669Z,12.00
2022-09-17T07:52:23.273Z,12.06
2022-09-17T07:54:54.850Z,12.13
2022-09-17T07:57:26.841Z,12.25
2022-09-17T07:59:58.494Z,12.35
2022-09-17T08:02:30.210Z,12.52
2022-09-17T08:05:04.924Z,12.71
2022-09-17T08:07:36.383Z,12.88
2022-09-17T08:10:08.339Z,13.04
2022-09-17T08:12:39.917Z,13.16
2022-09-17T08:15:11.532Z,13.21
2022-09-17T08:17:46.949Z,13.22
2022-09-17T08:20:19.200Z,13.24
2022-09-17T08:22:50.753Z,13.32
2022-09-17T08:25:22.444Z,13.41
2022-09-17T08:27:57.774Z,13.50
2022-09-17T08:30:29.411Z,13.59
2022-09-17T08:33:00.988Z,13.61
2022-09-17T08:35:32.617Z,13.74
2022-09-17T08:38:04.338Z,13.70
2022-09-17T08:40:45.926Z,13.62
2022-09-17T08:43:19.657Z,13.60
2022-09-17T08:45:59.225Z,13.51
2022-09-17T08:49:06.654Z,13.57
2022-09-17T08:51:56.427Z,13.49
2022-09-17T08:54:36.562Z,13.52
2022-09-17T08:57:34.411Z,13.89
2022-09-17T09:00:13.649Z,14.15
2022-09-17T09:03:12.930Z,14.41
2022-09-17T09:05:48.116Z,14.46
2022-09-17T09:08:30.677Z,14.50
2022-09-17T09:11:11.489Z,14.51
2022-09-17T09:13:53.179Z,14.38
2022-09-17T09:16:27.192Z,14.31
2022-09-17T09:19:22.014Z,14.40
2022-09-17T09:22:13.095Z,14.45
2022-09-17T09:24:54.236Z,14.54
2022-09-17T09:27:32.836Z,14.55
2022-09-17T09:30:10.540Z,14.54
2022-09-17T09:32:52.439Z,14.62
2022-09-17T09:35:27.672Z,14.63
2022-09-17T09:38:35.646Z,14.81
2022-09-17T09:41:22.453Z,14.81
2022-09-17T09:44:04.819Z,14.94
2022-09-17T09:46:48.132Z,14.93
2022-09-17T09:49:43.356Z,14.90
2022-09-17T09:52:32.810Z,14.86
2022-09-17T09:55:38.608Z,14.89
2022-09-17T09:58:35.662Z,14.94
2022-09-17T10:01:16.122Z,14.92
2022-09-17T10:03:51.883Z,14.97
2022-09-17T10:06:24.033Z,14.89
2022-09-17T10:08:55.554Z,14.84
2022-09-17T10:11:29.450Z,14.79
2022-09-17T10:14:22.867Z,14.72
2022-09-17T10:17:15.373Z,14.56
2022-09-17T10:20:00.180Z,14.60
2022-09-17T10:22:36.922Z,14.68
2022-09-17T10:25:28.647Z,14.71
2022-09-17T10:28:04.571Z,14.82
2022-09-17T10:30:36.302Z,14.84
2022-09-17T10:33:36.909Z,14.94
2022-09-17T10:36:13.541Z,15.09
2022-09-17T10:38:46.355Z,15.26
2022-09-17T10:41:24.916Z,15.59
2022-09-17T10:43:56.486Z,15.67
2022-09-17T10:46:33.802Z,15.65
2022-09-17T10:49:18.065Z,15.89
2022-09-17T10:51:49.682Z,16.22
2022-09-17T10:54:58.395Z,16.44
2022-09-17T10:57:55.195Z,16.61
2022-09-17T11:00:33.150Z,17.00
2022-09-17T11:03:31.605Z,17.40
2022-09-17T11:06:21.678Z,17.81
2022-09-17T11:09:05.139Z,18.20
2022-09-17T11:12:12.672Z,18.27
2022-09-17T11:14:53.359Z,17.90
2022-09-17T11:17:43.882Z,17.86
2022-09-17T11:20:32.581Z,17.78
2022-09-17T11:23:23.634Z,17.77
2022-09-17T11:26:00.790Z,17.78
2022-09-17T11:28:53.298Z,17.69
2022-09-17T11:31:35.889Z,17.67
2022-09-17T11:34:29.430Z,17.92
2022-09-17T11:37:12.831Z,18.10
2022-09-17T11:39:49.164Z,18.21
2022-09-17T11:42:30.946Z,18.21
2022-09-17T11:45:39.929Z,18.21
2022-09-17T11:48:20.663Z,18.20
2022-09-17T11:51:05.381Z,17.91
2022-09-17T11:54:06.210Z,17.90
2022-09-17T11:56:44.859Z,17.89
2022-09-17T11:59:30.486Z,17.73
2022-09-17T12:02:09.158Z,17.57
2022-09-17T12:05:09.989Z,17.53
2022-09-17T12:08:15.110Z,17.63
2022-09-17T12:10:53.063Z,17.36
2022-09-17T12:13:30.158Z,17.25
2022-09-17T12:16:24.889Z,17.18
2022-09-17T12:19:16.706Z,17.17
2022-09-17T12:21:55.971Z,17.30
2022-09-17T12:24:32.329Z,17.59
2022-09-17T12:27:30.750Z,18.06
2022-09-17T12:30:13.375Z,18.47
2022-09-17T12:32:59.983Z,18.62
2022-09-17T12:36:03.991Z,18.56
2022-09-17T12:39:02.887Z,18.50
2022-09-17T12:41:40.568Z,18.35
2022-09-17T12:44:35.486Z,18.29
2022-09-17T12:47:38.167Z,18.40
2022-09-17T12:50:31.385Z,18.32
2022-09-17T12:53:27.659Z,18.32
2022-09-17T12:56:22.150Z,18.14
2022-09-17T12:59:05.890Z,17.75
2022-09-17T13:01:58.883Z,17.68
2022-09-17T13:05:04.261Z,17.68
2022-09-17T13:07:54.692Z,17.55
2022-09-17T13:10:52.741Z,17.49
2022-09-17T13:13:27.219Z,17.23
2022-09-17T13:16:25.836Z,16.95
2022-09-17T13:19:16.882Z,16.88
2022-09-17T13:21:55.624Z,16.91
2022-09-17T13:24:31.150Z,16.92
2022-09-17T13:27:04.974Z,16.65
2022-09-17T13:29:46.141Z,16.47
2022-09-17T13:32:32.890Z,16.47
2022-09-17T13:35:13.121Z,16.33
2022-09-17T13:37:56.605Z,16.38
2022-09-17T13:40:38.096Z,16.44
2022-09-17T13:43:12.931Z,16.38
2022-09-17T13:45:59.550Z,16.54
2022-09-17T13:48:36.106Z,16.69
2022-09-17T13:51:33.995Z,16.75
2022-09-17T13:54:08.515Z,16.51
2022-09-17T13:56:48.329Z,16.34
2022-09-17T13:59:24.754Z,16.12
2022-09-17T14:01:57.926Z,16.13
2022-09-17T14:04:32.417Z,16.23
2022-09-17T14:07:23.953Z,16.36
2022-09-17T14:10:25.856Z,16.39
2022-09-17T14:13:20.315Z,16.48
2022-09-17T14:15:58.211Z,16.64
2022-09-17T14:18:34.148Z,16.75
2022-09-17T14:21:15.645Z,16.86
2022-09-17T14:23:54.595Z,16.73
2022-09-17T14:26:50.703Z,16.59
2022-09-17T14:30:09.724Z,16.57
2022-09-17T14:33:03.540Z,16.48
2022-09-17T14:35:40.148Z,16.39
2022-09-17T14:38:22.746Z,16.37
2022-09-17T14:41:04.968Z,16.48
2022-09-17T14:43:42.342Z,16.58
2022-09-17T14:46:20.431Z,16.60
2022-09-17T14:48:52.145Z,16.68
2022-09-17T14:51:29.532Z,16.92
2022-09-17T14:54:05.125Z,17.04
2022-09-17T14:56:45.600Z,17.01
2022-09-17T14:59:43.353Z,16.86
2022-09-17T15:02:33.675Z,16.63
2022-09-17T15:05:17.695Z,16.41
2022-09-17T15:07:49.621Z,16.37
2022-09-17T15:10:22.698Z,16.43
2022-09-17T15:12:58.395Z,16.43
2022-09-17T15:15:30.349Z,16.41
2022-09-17T15:18:01.972Z,16.39
2022-09-17T15:20:33.678Z,16.34
2022-09-17T15:23:20.394Z,16.36
2022-09-17T15:25:58.878Z,16.30
2022-09-17T15:28:43.524Z,16.12
2022-09-17T15:31:19.930Z,15.86
2022-09-17T15:33:51.614Z,15.77
2022-09-17T15:36:27.573Z,15.74
2022-09-17T15:38:59.501Z,15.74
2022-09-17T15:41:34.648Z,15.71
2022-09-17T15:44:31.833Z,15.65
2022-09-17T15:47:41.207Z,15.55
2022-09-17T15:50:22.699Z,15.54
2022-09-17T15:53:09.208Z,15.56
2022-09-17T15:55:44.366Z,15.61
2022-09-17T15:58:48.444Z,15.41
2022-09-17T16:01:31.748Z,15.33
2022-09-17T16:04:19.031Z,15.27
2022-09-17T16:06:57.752Z,15.19
2022-09-17T16:09:43.958Z,14.98
2022-09-17T16:12:25.081Z,14.94
2022-09-17T16:14:59.755Z,14.92
2022-09-17T16:17:37.430Z,14.85
2022-09-17T16:20:15.884Z,14.80
2022-09-17T16:22:50.969Z,14.81
2022-09-17T16:25:27.055Z,14.77
2022-09-17T16:28:02.506Z,14.74
2022-09-17T16:30:34.196Z,14.75
2022-09-17T16:33:06.891Z,14.77
2022-09-17T16:35:41.397Z,14.79
2022-09-17T16:38:13.112Z,14.76
2022-09-17T16:40:49.045Z,14.77
2022-09-17T16:43:20.768Z,14.75
2022-09-17T16:46:03.867Z,14.68
2022-09-17T16:48:35.549Z,14.67
2022-09-17T16:51:12.188Z,14.68
2022-09-17T16:53:44.031Z,14.61
2022-09-17T16:56:18.508Z,14.48
2022-09-17T16:58:54.750Z,14.35
2022-09-17T17:01:26.438Z,14.39
2022-09-17T17:04:00.958Z,14.38
2022-09-17T17:06:32.480Z,14.28
2022-09-17T17:09:04.356Z,14.17
2022-09-17T17:11:35.967Z,14.19
2022-09-17T17:14:11.491Z,14.18
2022-09-17T17:16:45.660Z,14.14
2022-09-17T17:19:17.892Z,14.15
2022-09-17T17:21:52.920Z,14.13
2022-09-17T17:24:24.638Z,14.12
2022-09-17T17:26:56.247Z,14.10
2022-09-17T17:29:27.862Z,14.05
2022-09-17T17:31:59.455Z,14.10
2022-09-17T17:34:31.630Z,14.05
2022-09-17T17:37:03.195Z,14.08
2022-09-17T17:39:34.835Z,14.12
2022-09-17T17:42:07.106Z,14.04
2022-09-17T17:44:38.786Z,13.93
2022-09-17T17:47:10.380Z,13.89
2022-09-17T17:49:41.994Z,13.86
2022-09-17T17:52:13.589Z,13.81
2022-09-17T17:54:45.247Z,13.77
2022-09-17T17:57:16.882Z,13.64
2022-09-17T17:59:48.509Z,13.55
2022-09-17T18:02:20.174Z,13.46
2022-09-17T18:04:51.903Z,13.42
2022-09-17T18:07:23.543Z,13.37
2022-09-17T18:09:55.164Z,13.31
2022-09-17T18:12:27.274Z,13.30
2022-09-17T18:14:59.209Z,13.25
2022-09-17T18:17:31.547Z,13.22
2022-09-17T18:20:06.750Z,13.17
2022-09-17T18:22:38.413Z,13.21
2022-09-17T18:25:10.161Z,13.15
2022-09-17T18:27:43.010Z,13.05
2022-09-17T18:30:14.824Z,13.02
2022-09-17T18:32:49.118Z,13.07
2022-09-17T18:35:20.944Z,13.01
2022-09-17T18:37:52.553Z,13.00
2022-09-17T18:40:24.222Z,13.02
2022-09-17T18:42:58.997Z,12.94
2022-09-17T18:45:30.800Z,12.81
2022-09-17T18:48:05.424Z,12.80
2022-09-17T18:50:36.929Z,12.80
2022-09-17T18:53:08.523Z,12.73
2022-09-17T18:55:46.730Z,12.69
2022-09-17T18:58:21.274Z,12.64
2022-09-17T19:00:53.107Z,12.63
2022-09-17T19:03:24.849Z,12.56
2022-09-17T19:06:00.151Z,12.58
2022-09-17T19:08:32.363Z,12.55
2022-09-17T19:11:07.303Z,12.54
2022-09-17T19:13:44.289Z,12.50
2022-09-17T19:16:19.188Z,12.48
2022-09-17T19:18:53.069Z,12.42
2022-09-17T19:21:24.803Z,12.43
2022-09-17T19:23:56.401Z,12.39
2022-09-17T19:26:33.292Z,12.34
2022-09-17T19:29:20.004Z,12.29
2022-09-17T19:31:54.953Z,12.22
2022-09-17T19:34:38.180Z,12.22
2022-09-17T19:37:09.837Z,12.24
2022-09-17T19:39:41.502Z,12.12
2022-09-17T19:42:13.244Z,12.07
2022-09-17T19:44:44.904Z,12.09
2022-09-17T19:47:16.534Z,12.10
2022-09-17T19:49:50.914Z,12.02
2022-09-17T19:52:26.606Z,12.00
2022-09-17T19:54:58.162Z,11.90
2022-09-17T19:57:29.862Z,11.83
2022-09-17T20:00:01.620Z,11.81
2022-09-17T20:02:42.166Z,11.80
2022-09-17T20:05:13.829Z,11.77
2022-09-17T20:07:45.536Z,11.85
2022-09-17T20:10:17.152Z,11.76
2022-09-17T20:12:48.828Z,11.78
2022-09-17T20:15:20.524Z,11.64
2022-09-17T20:17:52.237Z,11.66
2022-09-17T20:20:28.329Z,11.69
2022-09-17T20:22:59.963Z,11.67
2022-09-17T20:25:31.534Z,11.69
2022-09-17T20:28:04.066Z,11.69
2022-09-17T20:30:35.675Z,11.70
2022-09-17T20:33:07.329Z,11.76
2022-09-17T20:35:39.156Z,11.75
2022-09-17T20:41:09.695Z,11.72
2022-09-17T20:43:43.655Z,11.70
2022-09-17T20:46:16.709Z,11.68
2022-09-17T20:48:52.597Z,11.77
2022-09-17T20:51:26.839Z,11.78
2022-09-17T20:53:59.530Z,11.75
2022-09-17T20:56:35.320Z,11.72
2022-09-17T20:59:24.862Z,11.66
2022-09-17T21:02:00.979Z,11.71
2022-09-17T21:04:32.857Z,11.70
2022-09-17T21:07:04.910Z,11.67
2022-09-17T21:09:41.843Z,11.69
2022-09-17T21:12:13.546Z,11.69
2022-09-17T21:14:45.227Z,11.61
2022-09-17T21:17:19.716Z,11.61
2022-09-17T21:19:52.567Z,11.61
2022-09-17T21:22:24.147Z,11.70
2022-09-17T21:24:57.213Z,11.59
2022-09-17T21:27:31.818Z,11.59
2022-09-17T21:30:06.373Z,11.60
2022-09-17T21:32:38.250Z,11.62
2022-09-17T21:35:09.883Z,11.65
2022-09-17T21:37:41.455Z,11.64
2022-09-17T21:40:13.141Z,11.56
2022-09-17T21:42:44.759Z,11.45
2022-09-17T21:45:16.381Z,11.33
2022-09-17T21:47:47.962Z,11.19
2022-09-17T21:50:19.635Z,11.07
2022-09-17T21:52:51.243Z,10.97
2022-09-17T21:55:22.865Z,10.86
2022-09-17T21:57:54.502Z,10.77
2022-09-17T22:00:26.813Z,10.65
2022-09-17T22:02:58.896Z,10.63
2022-09-17T22:05:32.916Z,10.59
2022-09-17T22:08:05.578Z,10.60
2022-09-17T22:10:39.265Z,10.59
2022-09-17T22:13:13.613Z,10.55
2022-09-17T22:15:56.290Z,10.52
2022-09-17T22:18:27.990Z,10.56
2022-09-17T22:21:01.918Z,10.59
2022-09-17T22:23:33.521Z,10.61
2022-09-17T22:26:06.926Z,10.65
2022-09-17T22:28:38.619Z,10.67
2022-09-17T22:31:12.401Z,10.65
2022-09-17T22:33:46.348Z,10.64
2022-09-17T22:36:21.125Z,10.63
2022-09-17T22:38:56.585Z,10.64
2022-09-17T22:41:29.470Z,10.66
2022-09-17T22:44:05.387Z,10.65
2022-09-17T22:46:41.877Z,10.72
2022-09-17T22:49:14.385Z,10.75
2022-09-17T22:51:47.186Z,10.77
2022-09-17T22:54:22.438Z,10.78
2022-09-17T22:56:54.297Z,10.82
2022-09-17T22:59:28.902Z,10.84
2022-09-17T23:02:03.205Z,10.83
2022-09-17T23:04:34.892Z,10.84
2022-09-17T23:07:09.114Z,10.87
2022-09-17T23:09:40.698Z,10.90
2022-09-17T23:12:12.364Z,10.92
2022-09-17T23:14:43.920Z,10.86
2022-09-17T23:17:15.610Z,10.87
2022-09-17T23:19:47.190Z,10.90
2022-09-17T23:22:20.955Z,10.88
2022-09-17T23:24:52.571Z,10.88
2022-09-17T23:27:24.221Z,10.91
2022-09-17T23:29:55.797Z,10.95
2022-09-17T23:32:27.624Z,10.97
2022-09-17T23:34:59.219Z,10.96
2022-09-17T23:37:33.328Z,10.96
2022-09-17T23:40:07.016Z,10.97
2022-09-17T23:42:40.751Z,11.02
2022-09-17T23:45:12.329Z,10.99
2022-09-17T23:47:43.966Z,11.03
2022-09-17T23:50:15.666Z,11.04
2022-09-17T23:52:47.265Z,10.97
2022-09-17T23:55:18.827Z,10.94
2022-09-17T23:57:50.461Z,10.94
